sensor_id;sensor_type;location;lat;lon;timestamp;temperature;humidity
19340;HTU21D;9804;52.350;6.684;2023-05-06T00:00:12;13.34;-6.00
19340;HTU21D;9804;52.350;6.684;2023-05-06T00:02:38;13.30;-6.00
19340;HTU21D;9804;52.350;6.684;2023-05-06T00:05:04;13.29;-6.00
19340;HTU21D;9804;52.350;6.684;2023-05-06T00:07:30;13.20;-6.00
19340;HTU21D;9804;52.350;6.684;2023-05-06T00:09:55;13.10;-6.00
19340;HTU21D;9804;52.350;6.684;2023-05-06T00:12:20;13.01;-6.00
19340;HTU21D;9804;52.350;6.684;2023-05-06T00:14:46;12.88;-6.00
19340;HTU21D;9804;52.350;6.684;2023-05-06T00:17:11;12.91;-6.00
19340;HTU21D;9804;52.350;6.684;2023-05-06T00:19:37;12.79;-6.00
19340;HTU21D;9804;52.350;6.684;2023-05-06T00:22:02;12.74;-6.00
19340;HTU21D;9804;52.350;6.684;2023-05-06T00:24:28;12.56;-6.00
19340;HTU21D;9804;52.350;6.684;2023-05-06T00:26:53;12.69;-6.00
19340;HTU21D;9804;52.350;6.684;2023-05-06T00:29:19;12.57;-6.00
19340;HTU21D;9804;52.350;6.684;2023-05-06T00:31:44;12.49;-6.00
19340;HTU21D;9804;52.350;6.684;2023-05-06T00:34:10;12.56;-6.00
19340;HTU21D;9804;52.350;6.684;2023-05-06T00:36:36;12.56;-6.00
19340;HTU21D;9804;52.350;6.684;2023-05-06T00:39:02;12.50;-6.00
19340;HTU21D;9804;52.350;6.684;2023-05-06T00:41:31;12.49;-6.00
19340;HTU21D;9804;52.350;6.684;2023-05-06T00:43:57;12.41;-6.00
19340;HTU21D;9804;52.350;6.684;2023-05-06T00:46:23;12.32;-6.00
19340;HTU21D;9804;52.350;6.684;2023-05-06T00:48:48;12.19;-6.00
19340;HTU21D;9804;52.350;6.684;2023-05-06T00:51:14;12.32;-6.00
19340;HTU21D;9804;52.350;6.684;2023-05-06T00:53:39;12.32;-6.00
19340;HTU21D;9804;52.350;6.684;2023-05-06T00:56:05;12.23;-6.00
19340;HTU21D;9804;52.350;6.684;2023-05-06T00:58:30;12.13;-6.00
19340;HTU21D;9804;52.350;6.684;2023-05-06T01:00:56;12.12;-6.00
19340;HTU21D;9804;52.350;6.684;2023-05-06T01:03:22;12.03;-6.00
19340;HTU21D;9804;52.350;6.684;2023-05-06T01:08:49;11.98;-6.00
19340;HTU21D;9804;52.350;6.684;2023-05-06T01:11:37;12.12;-6.00
19340;HTU21D;9804;52.350;6.684;2023-05-06T01:14:11;12.04;-6.00
19340;HTU21D;9804;52.350;6.684;2023-05-06T01:16:39;12.20;-6.00
19340;HTU21D;9804;52.350;6.684;2023-05-06T01:19:08;12.18;-6.00
19340;HTU21D;9804;52.350;6.684;2023-05-06T01:21:38;12.13;-6.00
19340;HTU21D;9804;52.350;6.684;2023-05-06T01:24:05;12.15;-6.00
19340;HTU21D;9804;52.350;6.684;2023-05-06T01:26:31;12.13;-6.00
19340;HTU21D;9804;52.350;6.684;2023-05-06T01:28:56;12.00;-6.00
19340;HTU21D;9804;52.350;6.684;2023-05-06T01:31:44;12.02;-6.00
19340;HTU21D;9804;52.350;6.684;2023-05-06T01:34:17;12.12;-6.00
19340;HTU21D;9804;52.350;6.684;2023-05-06T01:36:57;12.07;-6.00
19340;HTU21D;9804;52.350;6.684;2023-05-06T01:39:25;11.91;-6.00
19340;HTU21D;9804;52.350;6.684;2023-05-06T01:41:56;11.87;-6.00
19340;HTU21D;9804;52.350;6.684;2023-05-06T01:44:22;11.86;-6.00
19340;HTU21D;9804;52.350;6.684;2023-05-06T01:46:48;11.76;-6.00
19340;HTU21D;9804;52.350;6.684;2023-05-06T01:49:15;11.72;-6.00
19340;HTU21D;9804;52.350;6.684;2023-05-06T01:51:46;11.63;-6.00
19340;HTU21D;9804;52.350;6.684;2023-05-06T01:54:12;11.61;-6.00
19340;HTU21D;9804;52.350;6.684;2023-05-06T01:56:37;11.59;-6.00
19340;HTU21D;9804;52.350;6.684;2023-05-06T01:59:02;11.59;-6.00
19340;HTU21D;9804;52.350;6.684;2023-05-06T02:01:28;11.66;-6.00
19340;HTU21D;9804;52.350;6.684;2023-05-06T02:03:53;11.62;-6.00
19340;HTU21D;9804;52.350;6.684;2023-05-06T02:06:19;11.63;-6.00
19340;HTU21D;9804;52.350;6.684;2023-05-06T02:08:44;11.71;-6.00
19340;HTU21D;9804;52.350;6.684;2023-05-06T02:11:09;11.76;-6.00
19340;HTU21D;9804;52.350;6.684;2023-05-06T02:13:35;11.76;-6.00
19340;HTU21D;9804;52.350;6.684;2023-05-06T02:16:00;11.84;-6.00
19340;HTU21D;9804;52.350;6.684;2023-05-06T02:18:26;11.99;-6.00
19340;HTU21D;9804;52.350;6.684;2023-05-06T02:20:51;12.02;-6.00
19340;HTU21D;9804;52.350;6.684;2023-05-06T02:23:17;12.05;-6.00
19340;HTU21D;9804;52.350;6.684;2023-05-06T02:25:42;12.27;-6.00
19340;HTU21D;9804;52.350;6.684;2023-05-06T02:28:08;12.29;-6.00
19340;HTU21D;9804;52.350;6.684;2023-05-06T02:30:33;12.32;-6.00
19340;HTU21D;9804;52.350;6.684;2023-05-06T02:32:59;12.27;-6.00
19340;HTU21D;9804;52.350;6.684;2023-05-06T02:35:25;12.21;-6.00
19340;HTU21D;9804;52.350;6.684;2023-05-06T02:37:50;12.07;-6.00
19340;HTU21D;9804;52.350;6.684;2023-05-06T02:40:15;12.08;-6.00
19340;HTU21D;9804;52.350;6.684;2023-05-06T02:42:41;11.93;-6.00
19340;HTU21D;9804;52.350;6.684;2023-05-06T02:45:07;12.00;-6.00
19340;HTU21D;9804;52.350;6.684;2023-05-06T02:47:32;11.77;-6.00
19340;HTU21D;9804;52.350;6.684;2023-05-06T02:49:58;11.78;-6.00
19340;HTU21D;9804;52.350;6.684;2023-05-06T02:52:23;11.81;-6.00
19340;HTU21D;9804;52.350;6.684;2023-05-06T02:54:49;11.93;-6.00
19340;HTU21D;9804;52.350;6.684;2023-05-06T02:57:14;11.93;-6.00
19340;HTU21D;9804;52.350;6.684;2023-05-06T02:59:40;11.99;-6.00
19340;HTU21D;9804;52.350;6.684;2023-05-06T03:02:05;11.63;-6.00
19340;HTU21D;9804;52.350;6.684;2023-05-06T03:04:30;11.66;-6.00
19340;HTU21D;9804;52.350;6.684;2023-05-06T03:06:56;11.70;-6.00
19340;HTU21D;9804;52.350;6.684;2023-05-06T03:09:21;11.59;-6.00
19340;HTU21D;9804;52.350;6.684;2023-05-06T03:11:47;11.66;-6.00
19340;HTU21D;9804;52.350;6.684;2023-05-06T03:14:13;11.53;-6.00
19340;HTU21D;9804;52.350;6.684;2023-05-06T03:16:38;11.69;-6.00
19340;HTU21D;9804;52.350;6.684;2023-05-06T03:19:04;11.63;-6.00
19340;HTU21D;9804;52.350;6.684;2023-05-06T03:21:29;11.62;-6.00
19340;HTU21D;9804;52.350;6.684;2023-05-06T03:23:55;11.52;-6.00
19340;HTU21D;9804;52.350;6.684;2023-05-06T03:26:21;11.47;-6.00
19340;HTU21D;9804;52.350;6.684;2023-05-06T03:28:46;11.38;-6.00
19340;HTU21D;9804;52.350;6.684;2023-05-06T03:31:12;11.34;-6.00
19340;HTU21D;9804;52.350;6.684;2023-05-06T03:33:37;11.42;-6.00
19340;HTU21D;9804;52.350;6.684;2023-05-06T03:36:03;11.28;-6.00
19340;HTU21D;9804;52.350;6.684;2023-05-06T03:38:28;11.34;-6.00
19340;HTU21D;9804;52.350;6.684;2023-05-06T03:40:54;11.26;-6.00
19340;HTU21D;9804;52.350;6.684;2023-05-06T03:43:19;11.26;-6.00
19340;HTU21D;9804;52.350;6.684;2023-05-06T03:45:45;11.22;-6.00
19340;HTU21D;9804;52.350;6.684;2023-05-06T03:48:10;11.24;-6.00
19340;HTU21D;9804;52.350;6.684;2023-05-06T03:50:35;11.19;-6.00
19340;HTU21D;9804;52.350;6.684;2023-05-06T03:53:01;11.23;-6.00
19340;HTU21D;9804;52.350;6.684;2023-05-06T03:55:26;11.33;-6.00
19340;HTU21D;9804;52.350;6.684;2023-05-06T03:57:52;11.39;-6.00
19340;HTU21D;9804;52.350;6.684;2023-05-06T04:00:17;11.34;-6.00
19340;HTU21D;9804;52.350;6.684;2023-05-06T04:02:43;11.23;-6.00
19340;HTU21D;9804;52.350;6.684;2023-05-06T04:05:08;11.19;-6.00
19340;HTU21D;9804;52.350;6.684;2023-05-06T04:07:34;11.18;-6.00
19340;HTU21D;9804;52.350;6.684;2023-05-06T04:09:59;11.14;-6.00
19340;HTU21D;9804;52.350;6.684;2023-05-06T04:12:24;11.23;-6.00
19340;HTU21D;9804;52.350;6.684;2023-05-06T04:14:50;11.14;-6.00
19340;HTU21D;9804;52.350;6.684;2023-05-06T04:17:15;11.20;-6.00
19340;HTU21D;9804;52.350;6.684;2023-05-06T04:19:40;11.26;-6.00
19340;HTU21D;9804;52.350;6.684;2023-05-06T04:22:06;11.38;-6.00
19340;HTU21D;9804;52.350;6.684;2023-05-06T04:24:31;11.30;-6.00
19340;HTU21D;9804;52.350;6.684;2023-05-06T04:26:58;11.34;-6.00
19340;HTU21D;9804;52.350;6.684;2023-05-06T04:29:23;11.16;-6.00
19340;HTU21D;9804;52.350;6.684;2023-05-06T04:31:49;11.33;-6.00
19340;HTU21D;9804;52.350;6.684;2023-05-06T04:34:15;11.59;-6.00
19340;HTU21D;9804;52.350;6.684;2023-05-06T04:36:42;11.67;-6.00
19340;HTU21D;9804;52.350;6.684;2023-05-06T04:39:07;11.64;-6.00
19340;HTU21D;9804;52.350;6.684;2023-05-06T04:41:34;11.61;-6.00
19340;HTU21D;9804;52.350;6.684;2023-05-06T04:44:00;11.63;-6.00
19340;HTU21D;9804;52.350;6.684;2023-05-06T04:46:26;11.85;-6.00
19340;HTU21D;9804;52.350;6.684;2023-05-06T04:48:51;11.88;-6.00
19340;HTU21D;9804;52.350;6.684;2023-05-06T04:51:17;11.67;-6.00
19340;HTU21D;9804;52.350;6.684;2023-05-06T04:53:42;11.62;-6.00
19340;HTU21D;9804;52.350;6.684;2023-05-06T04:56:07;11.64;-6.00
19340;HTU21D;9804;52.350;6.684;2023-05-06T04:58:33;11.76;-6.00
19340;HTU21D;9804;52.350;6.684;2023-05-06T05:01:03;11.90;-6.00
19340;HTU21D;9804;52.350;6.684;2023-05-06T05:03:29;12.08;-6.00
19340;HTU21D;9804;52.350;6.684;2023-05-06T05:05:56;12.29;-6.00
19340;HTU21D;9804;52.350;6.684;2023-05-06T05:08:21;12.43;-6.00
19340;HTU21D;9804;52.350;6.684;2023-05-06T05:10:47;12.55;-6.00
19340;HTU21D;9804;52.350;6.684;2023-05-06T05:13:13;12.62;-6.00
19340;HTU21D;9804;52.350;6.684;2023-05-06T05:15:38;12.66;-6.00
19340;HTU21D;9804;52.350;6.684;2023-05-06T05:18:04;12.62;-6.00
19340;HTU21D;9804;52.350;6.684;2023-05-06T05:20:30;12.73;-6.00
19340;HTU21D;9804;52.350;6.684;2023-05-06T05:22:55;12.87;-6.00
19340;HTU21D;9804;52.350;6.684;2023-05-06T05:25:20;13.03;-6.00
19340;HTU21D;9804;52.350;6.684;2023-05-06T05:27:46;12.90;-6.00
19340;HTU21D;9804;52.350;6.684;2023-05-06T05:30:12;13.02;-6.00
19340;HTU21D;9804;52.350;6.684;2023-05-06T05:32:37;12.97;-6.00
19340;HTU21D;9804;52.350;6.684;2023-05-06T05:35:03;12.99;-6.00
19340;HTU21D;9804;52.350;6.684;2023-05-06T05:37:28;13.12;-6.00
19340;HTU21D;9804;52.350;6.684;2023-05-06T05:39:53;13.22;-6.00
19340;HTU21D;9804;52.350;6.684;2023-05-06T05:42:20;13.50;-6.00
19340;HTU21D;9804;52.350;6.684;2023-05-06T05:44:45;13.59;-6.00
19340;HTU21D;9804;52.350;6.684;2023-05-06T05:47:11;13.22;-6.00
19340;HTU21D;9804;52.350;6.684;2023-05-06T05:49:36;13.67;-6.00
19340;HTU21D;9804;52.350;6.684;2023-05-06T05:52:02;13.79;-6.00
19340;HTU21D;9804;52.350;6.684;2023-05-06T05:54:27;13.85;-6.00
19340;HTU21D;9804;52.350;6.684;2023-05-06T05:56:53;13.74;-6.00
19340;HTU21D;9804;52.350;6.684;2023-05-06T05:59:18;14.14;-6.00
19340;HTU21D;9804;52.350;6.684;2023-05-06T06:01:43;14.27;-6.00
19340;HTU21D;9804;52.350;6.684;2023-05-06T06:04:09;14.32;-6.00
19340;HTU21D;9804;52.350;6.684;2023-05-06T06:06:34;14.40;-6.00
19340;HTU21D;9804;52.350;6.684;2023-05-06T06:09:00;14.55;-6.00
19340;HTU21D;9804;52.350;6.684;2023-05-06T06:11:25;14.51;-6.00
19340;HTU21D;9804;52.350;6.684;2023-05-06T06:13:51;14.55;-6.00
19340;HTU21D;9804;52.350;6.684;2023-05-06T06:16:16;14.62;-6.00
19340;HTU21D;9804;52.350;6.684;2023-05-06T06:18:42;14.64;-6.00
19340;HTU21D;9804;52.350;6.684;2023-05-06T06:21:07;14.55;-6.00
19340;HTU21D;9804;52.350;6.684;2023-05-06T06:23:32;14.63;-6.00
19340;HTU21D;9804;52.350;6.684;2023-05-06T06:25:58;14.83;-6.00
19340;HTU21D;9804;52.350;6.684;2023-05-06T06:28:23;15.04;-6.00
19340;HTU21D;9804;52.350;6.684;2023-05-06T06:30:49;15.13;-6.00
19340;HTU21D;9804;52.350;6.684;2023-05-06T06:33:14;15.31;-6.00
19340;HTU21D;9804;52.350;6.684;2023-05-06T06:35:39;15.61;-6.00
19340;HTU21D;9804;52.350;6.684;2023-05-06T06:38:05;15.54;-6.00
19340;HTU21D;9804;52.350;6.684;2023-05-06T06:40:30;15.76;-6.00
19340;HTU21D;9804;52.350;6.684;2023-05-06T06:42:56;16.04;-6.00
19340;HTU21D;9804;52.350;6.684;2023-05-06T06:45:21;16.20;-6.00
19340;HTU21D;9804;52.350;6.684;2023-05-06T06:47:47;16.37;-6.00
19340;HTU21D;9804;52.350;6.684;2023-05-06T06:50:13;16.58;-6.00
19340;HTU21D;9804;52.350;6.684;2023-05-06T06:52:38;16.65;-6.00
19340;HTU21D;9804;52.350;6.684;2023-05-06T06:55:04;16.60;-6.00
19340;HTU21D;9804;52.350;6.684;2023-05-06T06:57:30;17.10;-6.00
19340;HTU21D;9804;52.350;6.684;2023-05-06T06:59:55;17.15;-6.00
19340;HTU21D;9804;52.350;6.684;2023-05-06T07:02:21;17.40;-6.00
19340;HTU21D;9804;52.350;6.684;2023-05-06T07:04:47;17.51;-6.00
19340;HTU21D;9804;52.350;6.684;2023-05-06T07:07:12;17.60;-6.00
19340;HTU21D;9804;52.350;6.684;2023-05-06T07:09:38;17.74;-6.00
19340;HTU21D;9804;52.350;6.684;2023-05-06T07:12:10;17.69;-6.00
19340;HTU21D;9804;52.350;6.684;2023-05-06T07:14:36;18.05;-6.00
19340;HTU21D;9804;52.350;6.684;2023-05-06T07:17:01;17.73;-6.00
19340;HTU21D;9804;52.350;6.684;2023-05-06T07:19:27;17.92;-6.00
19340;HTU21D;9804;52.350;6.684;2023-05-06T07:21:53;17.90;-6.00
19340;HTU21D;9804;52.350;6.684;2023-05-06T07:24:18;18.06;-6.00
19340;HTU21D;9804;52.350;6.684;2023-05-06T07:26:44;17.62;-6.00
19340;HTU21D;9804;52.350;6.684;2023-05-06T07:29:09;17.73;-6.00
19340;HTU21D;9804;52.350;6.684;2023-05-06T07:31:35;17.68;-6.00
19340;HTU21D;9804;52.350;6.684;2023-05-06T07:34:00;17.87;-6.00
19340;HTU21D;9804;52.350;6.684;2023-05-06T07:36:26;18.27;-6.00
19340;HTU21D;9804;52.350;6.684;2023-05-06T07:38:52;18.36;-6.00
19340;HTU21D;9804;52.350;6.684;2023-05-06T07:41:17;18.67;-6.00
19340;HTU21D;9804;52.350;6.684;2023-05-06T07:43:43;18.95;-6.00
19340;HTU21D;9804;52.350;6.684;2023-05-06T07:46:08;18.76;-6.00
19340;HTU21D;9804;52.350;6.684;2023-05-06T07:48:34;18.99;-6.00
19340;HTU21D;9804;52.350;6.684;2023-05-06T07:51:00;19.06;-6.00
19340;HTU21D;9804;52.350;6.684;2023-05-06T07:53:25;18.89;-6.00
19340;HTU21D;9804;52.350;6.684;2023-05-06T07:55:53;19.06;-6.00
19340;HTU21D;9804;52.350;6.684;2023-05-06T07:58:22;19.20;-6.00
19340;HTU21D;9804;52.350;6.684;2023-05-06T08:00:48;19.43;-6.00
19340;HTU21D;9804;52.350;6.684;2023-05-06T08:03:13;19.31;-6.00
19340;HTU21D;9804;52.350;6.684;2023-05-06T08:05:40;19.23;-6.00
19340;HTU21D;9804;52.350;6.684;2023-05-06T08:08:06;19.13;-6.00
19340;HTU21D;9804;52.350;6.684;2023-05-06T08:10:31;19.29;-6.00
19340;HTU21D;9804;52.350;6.684;2023-05-06T08:12:56;19.48;-6.00
19340;HTU21D;9804;52.350;6.684;2023-05-06T08:15:22;19.55;-6.00
19340;HTU21D;9804;52.350;6.684;2023-05-06T08:17:47;19.63;-6.00
19340;HTU21D;9804;52.350;6.684;2023-05-06T08:20:13;19.58;-6.00
19340;HTU21D;9804;52.350;6.684;2023-05-06T08:22:38;19.75;-6.00
19340;HTU21D;9804;52.350;6.684;2023-05-06T08:25:04;19.59;-6.00
19340;HTU21D;9804;52.350;6.684;2023-05-06T08:27:29;19.89;-6.00
19340;HTU21D;9804;52.350;6.684;2023-05-06T08:29:55;20.00;-6.00
19340;HTU21D;9804;52.350;6.684;2023-05-06T08:32:20;19.86;-6.00
19340;HTU21D;9804;52.350;6.684;2023-05-06T08:34:45;19.91;-6.00
19340;HTU21D;9804;52.350;6.684;2023-05-06T08:37:11;20.14;-6.00
19340;HTU21D;9804;52.350;6.684;2023-05-06T08:39:36;20.25;-6.00
19340;HTU21D;9804;52.350;6.684;2023-05-06T08:42:02;20.31;-6.00
19340;HTU21D;9804;52.350;6.684;2023-05-06T08:44:28;20.70;-6.00
19340;HTU21D;9804;52.350;6.684;2023-05-06T08:46:53;20.64;-6.00
19340;HTU21D;9804;52.350;6.684;2023-05-06T08:49:19;20.80;-6.00
19340;HTU21D;9804;52.350;6.684;2023-05-06T08:51:48;20.69;-6.00
19340;HTU21D;9804;52.350;6.684;2023-05-06T08:54:14;21.07;-6.00
19340;HTU21D;9804;52.350;6.684;2023-05-06T08:56:44;21.21;-6.00
19340;HTU21D;9804;52.350;6.684;2023-05-06T08:59:09;21.29;-6.00
19340;HTU21D;9804;52.350;6.684;2023-05-06T09:01:35;21.28;-6.00
19340;HTU21D;9804;52.350;6.684;2023-05-06T09:04:02;21.59;-6.00
19340;HTU21D;9804;52.350;6.684;2023-05-06T09:06:28;21.68;-6.00
19340;HTU21D;9804;52.350;6.684;2023-05-06T09:08:53;21.93;-6.00
19340;HTU21D;9804;52.350;6.684;2023-05-06T09:11:28;21.63;-6.00
19340;HTU21D;9804;52.350;6.684;2023-05-06T09:16:35;21.89;-6.00
19340;HTU21D;9804;52.350;6.684;2023-05-06T09:19:00;22.21;-6.00
19340;HTU21D;9804;52.350;6.684;2023-05-06T09:21:38;23.03;-6.00
19340;HTU21D;9804;52.350;6.684;2023-05-06T09:24:05;23.46;-6.00
19340;HTU21D;9804;52.350;6.684;2023-05-06T09:26:31;23.05;-6.00
19340;HTU21D;9804;52.350;6.684;2023-05-06T09:28:58;23.16;-6.00
19340;HTU21D;9804;52.350;6.684;2023-05-06T09:31:25;22.86;-6.00
19340;HTU21D;9804;52.350;6.684;2023-05-06T09:33:55;22.78;-6.00
19340;HTU21D;9804;52.350;6.684;2023-05-06T09:36:21;22.48;-6.00
19340;HTU21D;9804;52.350;6.684;2023-05-06T09:38:48;21.85;-6.00
19340;HTU21D;9804;52.350;6.684;2023-05-06T09:41:13;22.54;-6.00
19340;HTU21D;9804;52.350;6.684;2023-05-06T09:43:42;22.47;-6.00
19340;HTU21D;9804;52.350;6.684;2023-05-06T09:46:10;22.67;-6.00
19340;HTU21D;9804;52.350;6.684;2023-05-06T09:48:37;22.50;-6.00
19340;HTU21D;9804;52.350;6.684;2023-05-06T09:51:04;23.14;-6.00
19340;HTU21D;9804;52.350;6.684;2023-05-06T09:53:33;23.10;-6.00
19340;HTU21D;9804;52.350;6.684;2023-05-06T09:55:59;23.28;-6.00
19340;HTU21D;9804;52.350;6.684;2023-05-06T09:58:25;23.39;-6.00
19340;HTU21D;9804;52.350;6.684;2023-05-06T10:00:52;23.44;-6.00
19340;HTU21D;9804;52.350;6.684;2023-05-06T10:03:18;23.53;-6.00
19340;HTU21D;9804;52.350;6.684;2023-05-06T10:05:45;23.73;-6.00
19340;HTU21D;9804;52.350;6.684;2023-05-06T10:08:12;24.21;-6.00
19340;HTU21D;9804;52.350;6.684;2023-05-06T10:10:43;24.55;-6.00
19340;HTU21D;9804;52.350;6.684;2023-05-06T10:13:09;23.82;-6.00
19340;HTU21D;9804;52.350;6.684;2023-05-06T10:15:36;23.24;-6.00
19340;HTU21D;9804;52.350;6.684;2023-05-06T10:18:02;23.65;-6.00
19340;HTU21D;9804;52.350;6.684;2023-05-06T10:20:30;23.53;-6.00
19340;HTU21D;9804;52.350;6.684;2023-05-06T10:23:08;23.87;-6.00
19340;HTU21D;9804;52.350;6.684;2023-05-06T10:25:37;23.20;-6.00
19340;HTU21D;9804;52.350;6.684;2023-05-06T10:28:04;23.38;-6.00
19340;HTU21D;9804;52.350;6.684;2023-05-06T10:30:32;23.28;-6.00
19340;HTU21D;9804;52.350;6.684;2023-05-06T10:32:58;23.61;-6.00
19340;HTU21D;9804;52.350;6.684;2023-05-06T10:38:25;23.98;-6.00
19340;HTU21D;9804;52.350;6.684;2023-05-06T10:40:51;23.77;-6.00
19340;HTU21D;9804;52.350;6.684;2023-05-06T10:43:22;23.84;-6.00
19340;HTU21D;9804;52.350;6.684;2023-05-06T10:45:58;24.13;-6.00
19340;HTU21D;9804;52.350;6.684;2023-05-06T10:48:25;24.04;-6.00
19340;HTU21D;9804;52.350;6.684;2023-05-06T10:50:50;23.84;-6.00
19340;HTU21D;9804;52.350;6.684;2023-05-06T10:53:15;23.83;-6.00
19340;HTU21D;9804;52.350;6.684;2023-05-06T10:55:41;24.12;-6.00
19340;HTU21D;9804;52.350;6.684;2023-05-06T10:58:14;24.33;-6.00
19340;HTU21D;9804;52.350;6.684;2023-05-06T11:00:40;23.70;-6.00
19340;HTU21D;9804;52.350;6.684;2023-05-06T11:03:10;24.32;-6.00
19340;HTU21D;9804;52.350;6.684;2023-05-06T11:05:46;24.30;-6.00
19340;HTU21D;9804;52.350;6.684;2023-05-06T11:08:14;24.13;-6.00
19340;HTU21D;9804;52.350;6.684;2023-05-06T11:10:39;23.96;-6.00
19340;HTU21D;9804;52.350;6.684;2023-05-06T11:13:21;24.15;-6.00
19340;HTU21D;9804;52.350;6.684;2023-05-06T11:15:47;24.66;-6.00
19340;HTU21D;9804;52.350;6.684;2023-05-06T11:26:08;25.45;-6.00
19340;HTU21D;9804;52.350;6.684;2023-05-06T11:28:34;25.61;-6.00
19340;HTU21D;9804;52.350;6.684;2023-05-06T11:31:00;24.85;-6.00
19340;HTU21D;9804;52.350;6.684;2023-05-06T11:33:32;25.01;-6.00
19340;HTU21D;9804;52.350;6.684;2023-05-06T11:36:01;25.34;-6.00
19340;HTU21D;9804;52.350;6.684;2023-05-06T11:38:51;24.78;-6.00
19340;HTU21D;9804;52.350;6.684;2023-05-06T11:41:18;24.76;-6.00
19340;HTU21D;9804;52.350;6.684;2023-05-06T11:43:47;25.06;-6.00
19340;HTU21D;9804;52.350;6.684;2023-05-06T11:46:18;25.02;-6.00
19340;HTU21D;9804;52.350;6.684;2023-05-06T11:48:43;24.78;-6.00
19340;HTU21D;9804;52.350;6.684;2023-05-06T11:51:09;24.29;-6.00
19340;HTU21D;9804;52.350;6.684;2023-05-06T11:53:34;25.05;-6.00
19340;HTU21D;9804;52.350;6.684;2023-05-06T11:55:59;25.54;-6.00
19340;HTU21D;9804;52.350;6.684;2023-05-06T11:58:26;25.73;-6.00
19340;HTU21D;9804;52.350;6.684;2023-05-06T12:00:54;25.67;-6.00
19340;HTU21D;9804;52.350;6.684;2023-05-06T12:03:21;25.12;-6.00
19340;HTU21D;9804;52.350;6.684;2023-05-06T12:05:48;25.67;-6.00
19340;HTU21D;9804;52.350;6.684;2023-05-06T12:08:33;25.53;-6.00
19340;HTU21D;9804;52.350;6.684;2023-05-06T12:11:02;26.06;-6.00
19340;HTU21D;9804;52.350;6.684;2023-05-06T12:13:27;26.22;-6.00
19340;HTU21D;9804;52.350;6.684;2023-05-06T12:15:54;26.53;-6.00
19340;HTU21D;9804;52.350;6.684;2023-05-06T12:18:20;26.87;-6.00
19340;HTU21D;9804;52.350;6.684;2023-05-06T12:20:46;27.04;-6.00
19340;HTU21D;9804;52.350;6.684;2023-05-06T12:23:13;26.54;-6.00
19340;HTU21D;9804;52.350;6.684;2023-05-06T12:25:40;26.16;-6.00
19340;HTU21D;9804;52.350;6.684;2023-05-06T12:28:17;25.88;-6.00
19340;HTU21D;9804;52.350;6.684;2023-05-06T12:30:43;26.53;-6.00
19340;HTU21D;9804;52.350;6.684;2023-05-06T12:33:08;26.37;-6.00
19340;HTU21D;9804;52.350;6.684;2023-05-06T12:35:35;25.81;-6.00
19340;HTU21D;9804;52.350;6.684;2023-05-06T12:38:12;25.82;-6.00
19340;HTU21D;9804;52.350;6.684;2023-05-06T12:40:39;25.29;-6.00
19340;HTU21D;9804;52.350;6.684;2023-05-06T12:43:04;26.30;-6.00
19340;HTU21D;9804;52.350;6.684;2023-05-06T12:45:30;25.77;-6.00
19340;HTU21D;9804;52.350;6.684;2023-05-06T12:47:57;26.82;-6.00
19340;HTU21D;9804;52.350;6.684;2023-05-06T12:50:38;26.94;-6.00
19340;HTU21D;9804;52.350;6.684;2023-05-06T12:53:05;27.57;-6.00
19340;HTU21D;9804;52.350;6.684;2023-05-06T12:55:32;27.85;-6.00
19340;HTU21D;9804;52.350;6.684;2023-05-06T12:57:58;27.32;-6.00
19340;HTU21D;9804;52.350;6.684;2023-05-06T13:00:24;26.99;-6.00
19340;HTU21D;9804;52.350;6.684;2023-05-06T13:02:49;26.57;-6.00
19340;HTU21D;9804;52.350;6.684;2023-05-06T13:05:15;26.34;-6.00
19340;HTU21D;9804;52.350;6.684;2023-05-06T13:07:40;26.91;-6.00
19340;HTU21D;9804;52.350;6.684;2023-05-06T13:10:06;26.32;-6.00
19340;HTU21D;9804;52.350;6.684;2023-05-06T13:12:32;25.25;-6.00
19340;HTU21D;9804;52.350;6.684;2023-05-06T13:14:58;25.12;-6.00
19340;HTU21D;9804;52.350;6.684;2023-05-06T13:17:24;25.33;-6.00
19340;HTU21D;9804;52.350;6.684;2023-05-06T13:19:51;25.49;-6.00
19340;HTU21D;9804;52.350;6.684;2023-05-06T13:22:17;25.03;-6.00
19340;HTU21D;9804;52.350;6.684;2023-05-06T13:24:42;24.62;-6.00
19340;HTU21D;9804;52.350;6.684;2023-05-06T13:27:07;24.59;-6.00
19340;HTU21D;9804;52.350;6.684;2023-05-06T13:29:33;24.55;-6.00
19340;HTU21D;9804;52.350;6.684;2023-05-06T13:31:58;24.13;-6.00
19340;HTU21D;9804;52.350;6.684;2023-05-06T13:34:25;23.83;-6.00
19340;HTU21D;9804;52.350;6.684;2023-05-06T13:36:50;23.68;-6.00
19340;HTU21D;9804;52.350;6.684;2023-05-06T13:39:18;23.55;-6.00
19340;HTU21D;9804;52.350;6.684;2023-05-06T13:41:47;23.89;-6.00
19340;HTU21D;9804;52.350;6.684;2023-05-06T13:44:14;24.14;-6.00
19340;HTU21D;9804;52.350;6.684;2023-05-06T13:46:40;24.32;-6.00
19340;HTU21D;9804;52.350;6.684;2023-05-06T13:49:06;24.08;-6.00
19340;HTU21D;9804;52.350;6.684;2023-05-06T13:51:31;24.40;-6.00
19340;HTU21D;9804;52.350;6.684;2023-05-06T13:53:58;24.47;-6.00
19340;HTU21D;9804;52.350;6.684;2023-05-06T13:56:24;24.38;-6.00
19340;HTU21D;9804;52.350;6.684;2023-05-06T13:58:50;24.14;-6.00
19340;HTU21D;9804;52.350;6.684;2023-05-06T14:01:20;24.56;-6.00
19340;HTU21D;9804;52.350;6.684;2023-05-06T14:03:46;24.14;-6.00
19340;HTU21D;9804;52.350;6.684;2023-05-06T14:06:11;24.09;-6.00
19340;HTU21D;9804;52.350;6.684;2023-05-06T14:08:37;24.73;-6.00
19340;HTU21D;9804;52.350;6.684;2023-05-06T14:11:02;24.63;-6.00
19340;HTU21D;9804;52.350;6.684;2023-05-06T14:13:30;24.21;-6.00
19340;HTU21D;9804;52.350;6.684;2023-05-06T14:15:56;24.33;-6.00
19340;HTU21D;9804;52.350;6.684;2023-05-06T14:18:21;24.54;-6.00
19340;HTU21D;9804;52.350;6.684;2023-05-06T14:20:46;23.74;-6.00
19340;HTU21D;9804;52.350;6.684;2023-05-06T14:23:12;23.86;-6.00
19340;HTU21D;9804;52.350;6.684;2023-05-06T14:25:37;24.19;-6.00
19340;HTU21D;9804;52.350;6.684;2023-05-06T14:28:03;24.39;-6.00
19340;HTU21D;9804;52.350;6.684;2023-05-06T14:30:28;24.59;-6.00
19340;HTU21D;9804;52.350;6.684;2023-05-06T14:32:55;24.25;-6.00
19340;HTU21D;9804;52.350;6.684;2023-05-06T14:35:20;23.90;-6.00
19340;HTU21D;9804;52.350;6.684;2023-05-06T14:37:46;24.05;-6.00
19340;HTU21D;9804;52.350;6.684;2023-05-06T14:40:11;23.62;-6.00
19340;HTU21D;9804;52.350;6.684;2023-05-06T14:42:37;23.81;-6.00
19340;HTU21D;9804;52.350;6.684;2023-05-06T14:45:03;24.09;-6.00
19340;HTU21D;9804;52.350;6.684;2023-05-06T14:47:28;24.21;-6.00
19340;HTU21D;9804;52.350;6.684;2023-05-06T14:49:53;24.15;-6.00
19340;HTU21D;9804;52.350;6.684;2023-05-06T14:52:19;24.47;-6.00
19340;HTU21D;9804;52.350;6.684;2023-05-06T14:54:45;24.55;-6.00
19340;HTU21D;9804;52.350;6.684;2023-05-06T14:57:10;23.90;-6.00
19340;HTU21D;9804;52.350;6.684;2023-05-06T14:59:37;24.51;-6.00
19340;HTU21D;9804;52.350;6.684;2023-05-06T15:02:03;25.10;-6.00
19340;HTU21D;9804;52.350;6.684;2023-05-06T15:04:29;24.34;-6.00
19340;HTU21D;9804;52.350;6.684;2023-05-06T15:06:54;24.41;-6.00
19340;HTU21D;9804;52.350;6.684;2023-05-06T15:09:22;24.53;-6.00
19340;HTU21D;9804;52.350;6.684;2023-05-06T15:11:47;24.05;-6.00
19340;HTU21D;9804;52.350;6.684;2023-05-06T15:14:12;23.82;-6.00
19340;HTU21D;9804;52.350;6.684;2023-05-06T15:16:38;25.12;-6.00
19340;HTU21D;9804;52.350;6.684;2023-05-06T15:19:04;24.86;-6.00
19340;HTU21D;9804;52.350;6.684;2023-05-06T15:21:29;24.79;-6.00
19340;HTU21D;9804;52.350;6.684;2023-05-06T15:23:55;24.59;-6.00
19340;HTU21D;9804;52.350;6.684;2023-05-06T15:26:21;24.98;-6.00
19340;HTU21D;9804;52.350;6.684;2023-05-06T15:28:46;25.02;-6.00
19340;HTU21D;9804;52.350;6.684;2023-05-06T15:31:11;24.93;-6.00
19340;HTU21D;9804;52.350;6.684;2023-05-06T15:33:37;25.05;-6.00
19340;HTU21D;9804;52.350;6.684;2023-05-06T15:36:02;25.05;-6.00
19340;HTU21D;9804;52.350;6.684;2023-05-06T15:38:28;25.05;-6.00
19340;HTU21D;9804;52.350;6.684;2023-05-06T15:40:53;24.73;-6.00